Artemis — SWZE — position and weather

sailwx.info

Track history (hours):
 
Tides and Currents Weather Stations Pressure Air Temp Water Temp Dewpoint Dewpoint Depression Visibility Wind Speed Wind Dir Waves Ship Positions

Artemis

Last reported at 2017-Feb-25 13:33 UTC. Time now 2017-Feb-25 13:48 UTC.
Position N 37°28' E 025°19'.

Length 89 m; draft 3.4 m.

Type: Ship. MMSI: 237026300.

Date/timePositionNaut miles runAvg speedWind from/ knotsBaromVisibWave heightAir tempDewpointWater temp
2017-Feb-25 13:33N 37°28' E 025°19'1414.5
2017-Feb-25 12:33N 37°15' E 025°12'5 3.8
2017-Feb-25 11:07N 37°09' E 025°12'712.9
2017-Feb-25 10:34N 37°08' E 025°21'9 0.5
2017-Feb-24 16:30N 36°59' E 025°18'8 8.5
2017-Feb-24 15:34N 37°06' E 025°22'10 5.1
2017-Feb-24 13:32N 37°11' E 025°11'1413.9
2017-Feb-24 12:33N 37°24' E 025°17'5 5.3
2017-Feb-24 11:33N 37°27' E 025°12'20 9.7
2017-Feb-24 09:33N 37°32' E 024°48'14 0.6
2017-Feb-23 09:33N 37°18' E 024°48'3 0.1
2017-Feb-22 13:33N 37°19' E 024°52'13 4.3
2017-Feb-22 10:34N 37°29' E 025°02'6 5.8
2017-Feb-22 09:33N 37°35' E 025°04'1 0.3
2017-Feb-22 06:06N 37°35' E 025°03'610.6
2017-Feb-22 05:33N 37°32' E 025°09'26 2.2
2017-Feb-21 17:34N 37°06' E 025°05'5 0.5
2017-Feb-21 07:34N 37°06' E 024°59'7 6.4
2017-Feb-21 06:29N 37°09' E 025°07'56 2.8
2017-Feb-20 10:26N 37°38' E 024°07'52 4.4
2017-Feb-19 22:34N 37°27' E 025°11'6 6.2
2017-Feb-19 21:31N 37°23' E 025°17'2010.2
2017-Feb-19 19:34N 37°07' E 025°03'6 0.6
2017-Feb-19 09:26N 37°06' E 024°56'17 9.0
2017-Feb-19 07:33N 37°16' E 025°13'1311.8
2017-Feb-19 06:29N 37°28' E 025°19'19 1.1
2017-Feb-18 12:12N 37°09' E 025°13'812.4
2017-Feb-18 11:34N 37°06' E 025°22'8 0.5
2017-Feb-17 18:14N 36°59' E 025°18'811.7
2017-Feb-17 17:33N 37°06' E 025°22'188 7.8
2017-Feb-16 17:24N 40°12' E 024°47'1214.1
2017-Feb-16 16:33N 40°23' E 024°39'1514.5
2017-Feb-16 15:33N 40°35' E 024°30'1414.4
2017-Feb-16 14:33N 40°49' E 024°26'7 6.5
2017-Feb-16 13:31N 40°56' E 024°25'1 0.9
2017-Feb-16 12:33N 40°55' E 024°24'1514.8
2017-Feb-16 11:33N 40°41' E 024°28'1414.1
2017-Feb-16 10:33N 40°29' E 024°38'1514.7
2017-Feb-16 09:33N 40°17' E 024°50'  
Track history (hours):
 
Tides and Currents Weather Stations Pressure Air Temp Water Temp Dewpoint Dewpoint Depression Visibility Wind Speed Wind Dir Waves Ship Positions

Artemis

Last reported at 2017-Feb-25 13:33 UTC. Time now 2017-Feb-25 13:48 UTC.
Position N 37°28' E 025°19'.

Length 89 m; draft 3.4 m.

Type: Ship. MMSI: 237026300.

Date/timePositionNaut miles runAvg speedWind from/ knotsBaromVisibWave heightAir tempDewpointWater temp
2017-Feb-25 13:33N 37°28' E 025°19'1414.5
2017-Feb-25 12:33N 37°15' E 025°12'5 3.8
2017-Feb-25 11:07N 37°09' E 025°12'712.9
2017-Feb-25 10:34N 37°08' E 025°21'9 0.5
2017-Feb-24 16:30N 36°59' E 025°18'8 8.5
2017-Feb-24 15:34N 37°06' E 025°22'10 5.1
2017-Feb-24 13:32N 37°11' E 025°11'1413.9
2017-Feb-24 12:33N 37°24' E 025°17'5 5.3
2017-Feb-24 11:33N 37°27' E 025°12'20 9.7
2017-Feb-24 09:33N 37°32' E 024°48'14 0.6
2017-Feb-23 09:33N 37°18' E 024°48'3 0.1
2017-Feb-22 13:33N 37°19' E 024°52'13 4.3
2017-Feb-22 10:34N 37°29' E 025°02'6 5.8
2017-Feb-22 09:33N 37°35' E 025°04'1 0.3
2017-Feb-22 06:06N 37°35' E 025°03'610.6
2017-Feb-22 05:33N 37°32' E 025°09'26 2.2
2017-Feb-21 17:34N 37°06' E 025°05'5 0.5
2017-Feb-21 07:34N 37°06' E 024°59'7 6.4
2017-Feb-21 06:29N 37°09' E 025°07'56 2.8
2017-Feb-20 10:26N 37°38' E 024°07'52 4.4
2017-Feb-19 22:34N 37°27' E 025°11'6 6.2
2017-Feb-19 21:31N 37°23' E 025°17'2010.2
2017-Feb-19 19:34N 37°07' E 025°03'6 0.6
2017-Feb-19 09:26N 37°06' E 024°56'17 9.0
2017-Feb-19 07:33N 37°16' E 025°13'1311.8
2017-Feb-19 06:29N 37°28' E 025°19'19 1.1
2017-Feb-18 12:12N 37°09' E 025°13'812.4
2017-Feb-18 11:34N 37°06' E 025°22'8 0.5
2017-Feb-17 18:14N 36°59' E 025°18'811.7
2017-Feb-17 17:33N 37°06' E 025°22'188 7.8
2017-Feb-16 17:24N 40°12' E 024°47'1214.1
2017-Feb-16 16:33N 40°23' E 024°39'1514.5
2017-Feb-16 15:33N 40°35' E 024°30'1414.4
2017-Feb-16 14:33N 40°49' E 024°26'7 6.5
2017-Feb-16 13:31N 40°56' E 024°25'1 0.9
2017-Feb-16 12:33N 40°55' E 024°24'1514.8
2017-Feb-16 11:33N 40°41' E 024°28'1414.1
2017-Feb-16 10:33N 40°29' E 024°38'1514.7
2017-Feb-16 09:33N 40°17' E 024°50'  

Dump ship's entire track history